createdAt,value
2023-01-17T00:00:35.013Z,3.62
2023-01-17T00:03:01.783Z,3.61
2023-01-17T00:05:47.488Z,3.62
2023-01-17T00:08:32.970Z,3.64
2023-01-17T00:10:59.757Z,3.67
2023-01-17T00:13:27.187Z,3.68
2023-01-17T00:15:53.878Z,3.69
2023-01-17T00:18:20.543Z,3.70
2023-01-17T00:21:06.130Z,3.69
2023-01-17T00:23:51.745Z,3.69
2023-01-17T00:26:19.146Z,3.70
2023-01-17T00:28:47.246Z,3.72
2023-01-17T00:31:14.904Z,3.74
2023-01-17T00:33:41.659Z,3.76
2023-01-17T00:36:08.768Z,3.78
2023-01-17T00:38:36.608Z,3.80
2023-01-17T00:41:11.290Z,3.80
2023-01-17T00:43:56.948Z,3.79
2023-01-17T00:46:42.843Z,3.79
2023-01-17T00:49:28.353Z,3.79
2023-01-17T00:52:13.955Z,3.79
2023-01-17T00:54:59.532Z,3.79
2023-01-17T00:57:45.093Z,3.80
2023-01-17T01:00:31.247Z,3.80
2023-01-17T01:03:16.776Z,3.82
2023-01-17T01:06:02.523Z,3.83
2023-01-17T01:08:48.221Z,3.83
2023-01-17T01:11:38.313Z,3.83
2023-01-17T01:14:24.854Z,3.83
2023-01-17T01:17:10.504Z,3.83
2023-01-17T01:19:55.960Z,3.84
2023-01-17T01:22:41.477Z,3.86
2023-01-17T01:25:27.508Z,3.87
2023-01-17T01:28:21.592Z,3.88
2023-01-17T01:31:07.145Z,3.88
2023-01-17T01:33:33.842Z,3.88
2023-01-17T01:36:00.543Z,3.86
2023-01-17T01:38:27.237Z,3.86
2023-01-17T01:40:55.439Z,3.87
2023-01-17T01:43:39.199Z,3.89
2023-01-17T01:46:06.003Z,3.90
2023-01-17T01:48:35.612Z,3.90
2023-01-17T01:51:10.530Z,3.92
2023-01-17T01:53:38.493Z,3.92
2023-01-17T01:56:06.022Z,3.91
2023-01-17T01:58:33.567Z,3.91
2023-01-17T02:01:00.478Z,3.92
2023-01-17T02:03:29.567Z,3.93
2023-01-17T02:05:57.177Z,3.93
2023-01-17T02:08:23.867Z,3.94
2023-01-17T02:10:50.530Z,3.94
2023-01-17T02:13:17.932Z,3.93
2023-01-17T02:16:09.190Z,3.93
2023-01-17T02:19:13.293Z,3.94
2023-01-17T02:21:47.354Z,3.93
2023-01-17T02:24:58.919Z,3.91
2023-01-17T02:27:34.570Z,3.91
2023-01-17T02:30:23.412Z,3.88
2023-01-17T02:33:13.685Z,3.86
2023-01-17T02:35:48.989Z,3.85
2023-01-17T02:38:34.128Z,3.84
2023-01-17T02:41:03.255Z,3.84
2023-01-17T02:43:29.955Z,3.84
2023-01-17T02:45:56.668Z,3.82
2023-01-17T02:48:24.728Z,3.82
2023-01-17T02:51:03.011Z,3.83
2023-01-17T02:53:49.994Z,3.84
2023-01-17T02:56:44.717Z,3.83
2023-01-17T02:59:26.609Z,3.81
2023-01-17T03:02:10.137Z,3.81
2023-01-17T03:04:42.947Z,3.81
2023-01-17T03:07:11.870Z,3.80
2023-01-17T03:09:38.647Z,3.82
2023-01-17T03:12:05.711Z,3.83
2023-01-17T03:14:32.425Z,3.83
2023-01-17T03:16:59.113Z,3.84
2023-01-17T03:19:25.870Z,3.85
2023-01-17T03:21:52.575Z,3.87
2023-01-17T03:24:19.368Z,3.87
2023-01-17T03:26:47.903Z,3.87
2023-01-17T03:29:16.486Z,3.90
2023-01-17T03:31:43.204Z,3.90
2023-01-17T03:34:09.954Z,3.90
2023-01-17T03:36:36.684Z,3.92
2023-01-17T03:39:03.491Z,3.93
2023-01-17T03:41:30.218Z,3.92
2023-01-17T03:43:56.920Z,3.91
2023-01-17T03:46:24.987Z,3.90
2023-01-17T03:48:52.117Z,3.91
2023-01-17T03:51:19.004Z,3.93
2023-01-17T03:53:47.088Z,3.95
2023-01-17T03:56:14.359Z,3.95
2023-01-17T03:58:41.580Z,3.95
2023-01-17T04:03:12.429Z,3.96
2023-01-17T04:05:39.139Z,3.95
2023-01-17T04:08:07.266Z,3.95
2023-01-17T04:10:34.045Z,3.96
2023-01-17T04:13:00.771Z,3.96
2023-01-17T04:15:27.438Z,3.97
2023-01-17T04:17:54.943Z,3.99
2023-01-17T04:20:33.542Z,3.99
2023-01-17T04:23:00.372Z,4.00
2023-01-17T04:25:27.469Z,4.00
2023-01-17T04:27:54.168Z,4.01
2023-01-17T04:30:21.167Z,4.02
2023-01-17T04:32:47.888Z,4.02
2023-01-17T04:35:14.643Z,4.00
2023-01-17T04:37:41.323Z,4.00
2023-01-17T04:40:08.921Z,3.99
2023-01-17T04:42:35.582Z,3.99
2023-01-17T04:45:02.324Z,4.00
2023-01-17T04:47:29.031Z,4.00
2023-01-17T04:49:55.749Z,4.01
2023-01-17T04:52:22.620Z,4.01
2023-01-17T04:54:49.610Z,4.01
2023-01-17T04:57:19.769Z,4.02
2023-01-17T04:59:46.751Z,4.02
2023-01-17T05:02:13.981Z,4.02
2023-01-17T05:04:40.927Z,4.04
2023-01-17T05:07:07.639Z,4.06
2023-01-17T05:09:34.317Z,4.06
2023-01-17T05:12:01.021Z,4.07
2023-01-17T05:14:27.798Z,4.06
2023-01-17T05:16:55.589Z,4.06
2023-01-17T05:19:26.132Z,4.07
2023-01-17T05:21:52.873Z,4.09
2023-01-17T05:24:19.705Z,4.09
2023-01-17T05:26:54.797Z,4.09
2023-01-17T05:29:21.870Z,4.10
2023-01-17T05:31:48.755Z,4.10
2023-01-17T05:34:15.458Z,4.10
2023-01-17T05:36:42.130Z,4.10
2023-01-17T05:39:12.616Z,4.10
2023-01-17T05:41:40.588Z,4.10
2023-01-17T05:44:07.504Z,4.11
2023-01-17T05:46:34.269Z,4.12
2023-01-17T05:49:01.082Z,4.14
2023-01-17T05:51:29.374Z,4.16
2023-01-17T05:53:56.047Z,4.17
2023-01-17T05:56:22.853Z,4.18
2023-01-17T05:58:49.568Z,4.19
2023-01-17T06:01:17.732Z,4.19
2023-01-17T06:03:44.479Z,4.20
2023-01-17T06:06:11.134Z,4.22
2023-01-17T06:08:37.773Z,4.22
2023-01-17T06:11:04.492Z,4.22
2023-01-17T06:13:31.218Z,4.22
2023-01-17T06:16:02.936Z,4.22
2023-01-17T06:18:30.524Z,4.22
2023-01-17T06:20:57.298Z,4.23
2023-01-17T06:23:24.949Z,4.24
2023-01-17T06:25:51.682Z,4.25
2023-01-17T06:28:20.271Z,4.25
2023-01-17T06:30:47.282Z,4.27
2023-01-17T06:33:14.077Z,4.29
2023-01-17T06:35:46.809Z,4.30
2023-01-17T06:38:13.477Z,4.31
2023-01-17T06:40:40.148Z,4.32
2023-01-17T06:43:06.990Z,4.31
2023-01-17T06:45:34.309Z,4.33
2023-01-17T06:48:01.909Z,4.33
2023-01-17T06:50:28.599Z,4.31
2023-01-17T06:52:59.855Z,4.30
2023-01-17T06:55:30.539Z,4.30
2023-01-17T06:57:58.558Z,4.31
2023-01-17T07:00:26.264Z,4.32
2023-01-17T07:02:53.020Z,4.32
2023-01-17T07:05:19.763Z,4.33
2023-01-17T07:07:46.512Z,4.33
2023-01-17T07:10:13.781Z,4.33
2023-01-17T07:12:40.524Z,4.34
2023-01-17T07:15:07.901Z,4.34
2023-01-17T07:17:35.038Z,4.34
2023-01-17T07:20:01.789Z,4.35
2023-01-17T07:22:28.540Z,4.36
2023-01-17T07:24:58.777Z,4.36
2023-01-17T07:27:27.839Z,4.35
2023-01-17T07:29:54.603Z,4.34
2023-01-17T07:32:21.556Z,4.33
2023-01-17T07:34:48.380Z,4.34
2023-01-17T07:37:15.398Z,4.35
2023-01-17T07:39:42.382Z,4.35
2023-01-17T07:42:09.327Z,4.35
2023-01-17T07:44:36.156Z,4.34
2023-01-17T07:47:04.358Z,4.34
2023-01-17T07:49:31.122Z,4.35
2023-01-17T07:51:57.992Z,4.36
2023-01-17T07:54:24.705Z,4.37
2023-01-17T07:56:51.370Z,4.38
2023-01-17T07:59:18.319Z,4.38
2023-01-17T08:01:45.122Z,4.40
2023-01-17T08:05:43.192Z,4.41
2023-01-17T08:08:10.139Z,4.42
2023-01-17T08:10:36.820Z,4.43
2023-01-17T08:13:03.493Z,4.45
2023-01-17T08:15:30.288Z,4.47
2023-01-17T08:17:58.040Z,4.47
2023-01-17T08:20:27.559Z,4.47
2023-01-17T08:22:57.798Z,4.49
2023-01-17T08:25:25.006Z,4.52
2023-01-17T08:27:51.874Z,4.52
2023-01-17T08:30:18.828Z,4.54
2023-01-17T08:32:45.891Z,4.57
2023-01-17T08:35:12.751Z,4.61
2023-01-17T08:37:39.546Z,4.63
2023-01-17T08:40:07.025Z,4.65
2023-01-17T08:42:39.313Z,4.68
2023-01-17T08:45:07.074Z,4.69
2023-01-17T08:47:34.259Z,4.70
2023-01-17T08:50:01.460Z,4.71
2023-01-17T08:52:28.559Z,4.72
2023-01-17T08:54:55.494Z,4.75
2023-01-17T08:57:22.294Z,4.78
2023-01-17T08:59:49.109Z,4.81
2023-01-17T09:02:17.150Z,4.85
2023-01-17T09:04:45.273Z,4.87
2023-01-17T09:07:12.071Z,4.89
2023-01-17T09:09:38.823Z,4.91
2023-01-17T09:12:05.605Z,4.93
2023-01-17T09:14:32.793Z,4.96
2023-01-17T09:16:59.650Z,4.98
2023-01-17T09:19:27.097Z,4.98
2023-01-17T09:21:53.786Z,5.00
2023-01-17T09:24:20.496Z,5.02
2023-01-17T09:26:47.169Z,5.04
2023-01-17T09:29:17.855Z,5.05
2023-01-17T09:31:47.249Z,5.06
2023-01-17T09:34:15.106Z,5.06
2023-01-17T09:36:42.144Z,5.07
2023-01-17T09:39:10.024Z,5.08
2023-01-17T09:42:00.261Z,5.09
2023-01-17T09:44:30.024Z,5.11
2023-01-17T09:47:00.086Z,5.12
2023-01-17T09:49:41.817Z,5.14
2023-01-17T09:52:09.991Z,5.17
2023-01-17T09:54:41.611Z,5.18
2023-01-17T09:57:20.784Z,5.21
2023-01-17T10:00:02.995Z,5.23
2023-01-17T10:02:47.069Z,5.26
2023-01-17T10:05:32.906Z,5.28
2023-01-17T10:08:23.710Z,5.29
2023-01-17T10:10:58.028Z,5.29
2023-01-17T10:13:48.490Z,5.29
2023-01-17T10:16:31.464Z,5.31
2023-01-17T10:19:12.194Z,5.34
2023-01-17T10:21:43.853Z,5.35
2023-01-17T10:24:21.161Z,5.33
2023-01-17T10:26:50.075Z,5.34
2023-01-17T10:29:21.298Z,5.33
2023-01-17T10:31:58.116Z,5.33
2023-01-17T10:34:38.053Z,5.33
2023-01-17T10:37:16.918Z,5.33
2023-01-17T10:39:44.898Z,5.35
2023-01-17T10:42:26.456Z,5.38
2023-01-17T10:45:02.054Z,5.40
2023-01-17T10:47:29.999Z,5.41
2023-01-17T10:49:58.473Z,5.43
2023-01-17T10:52:45.274Z,5.45
2023-01-17T10:55:24.407Z,5.46
2023-01-17T10:57:51.252Z,5.47
2023-01-17T11:00:35.824Z,5.48
2023-01-17T11:03:02.584Z,5.51
2023-01-17T11:05:31.158Z,5.53
2023-01-17T11:08:02.272Z,5.56
2023-01-17T11:10:58.120Z,5.56
2023-01-17T11:13:35.680Z,5.57
2023-01-17T11:16:18.047Z,5.58
2023-01-17T11:18:44.698Z,5.58
2023-01-17T11:21:18.977Z,5.59
2023-01-17T11:23:49.633Z,5.59
2023-01-17T11:26:30.667Z,5.60
2023-01-17T11:29:33.060Z,5.58
2023-01-17T11:32:22.468Z,5.58
2023-01-17T11:35:06.813Z,5.58
2023-01-17T11:37:34.667Z,5.59
2023-01-17T11:40:09.450Z,5.60
2023-01-17T11:42:37.725Z,5.61
2023-01-17T11:45:27.626Z,5.63
2023-01-17T11:48:12.697Z,5.62
2023-01-17T11:50:45.369Z,5.61
2023-01-17T11:53:15.462Z,5.63
2023-01-17T11:56:11.248Z,5.64
2023-01-17T11:58:40.135Z,5.66
2023-01-17T12:01:10.601Z,5.67
2023-01-17T12:04:19.884Z,5.67
2023-01-17T12:06:58.735Z,5.69
2023-01-17T12:09:28.767Z,5.72
2023-01-17T12:12:18.076Z,5.75
2023-01-17T12:15:07.035Z,5.77
2023-01-17T12:17:53.520Z,5.79
2023-01-17T12:20:32.887Z,5.80
2023-01-17T12:23:26.141Z,5.81
2023-01-17T12:26:05.749Z,5.82
2023-01-17T12:28:46.436Z,5.83
2023-01-17T12:31:26.224Z,5.82
2023-01-17T12:34:06.413Z,5.82
2023-01-17T12:36:41.989Z,5.82
2023-01-17T12:39:11.867Z,5.82
2023-01-17T12:41:53.312Z,5.83
2023-01-17T12:44:21.751Z,5.84
2023-01-17T12:46:50.845Z,5.85
2023-01-17T12:49:23.780Z,5.86
2023-01-17T12:51:57.960Z,5.86
2023-01-17T12:54:33.665Z,5.86
2023-01-17T12:57:06.396Z,5.84
2023-01-17T12:59:40.942Z,5.85
2023-01-17T13:02:20.291Z,5.86
2023-01-17T13:04:58.666Z,5.87
2023-01-17T13:08:18.233Z,5.86
2023-01-17T13:10:51.159Z,5.87
2023-01-17T13:13:26.385Z,5.87
2023-01-17T13:15:58.406Z,5.89
2023-01-17T13:18:27.130Z,5.87
2023-01-17T13:21:28.213Z,5.86
2023-01-17T13:24:06.164Z,5.87
2023-01-17T13:27:05.740Z,5.87
2023-01-17T13:30:15.361Z,5.87
2023-01-17T13:33:21.811Z,5.85
2023-01-17T13:35:55.309Z,5.84
2023-01-17T13:38:30.610Z,5.84
2023-01-17T13:41:04.089Z,5.84
2023-01-17T13:43:40.626Z,5.83
2023-01-17T13:46:07.406Z,5.83
2023-01-17T13:48:38.544Z,5.84
2023-01-17T13:51:09.460Z,5.83
2023-01-17T13:53:45.624Z,5.83
2023-01-17T13:56:13.268Z,5.83
2023-01-17T13:58:50.322Z,5.82
2023-01-17T14:01:23.271Z,5.81
2023-01-17T14:03:50.313Z,5.82
2023-01-17T14:06:35.576Z,5.82
2023-01-17T14:09:08.570Z,5.83
2023-01-17T14:11:35.955Z,5.84
2023-01-17T14:14:40.139Z,5.84
2023-01-17T14:17:33.160Z,5.85
2023-01-17T14:20:05.910Z,5.85
2023-01-17T14:22:36.584Z,5.87
2023-01-17T14:27:53.468Z,5.90
2023-01-17T14:30:33.728Z,5.89
2023-01-17T14:33:08.851Z,5.87
2023-01-17T14:35:37.767Z,5.87
2023-01-17T14:38:15.225Z,5.87
2023-01-17T14:40:43.262Z,5.87
2023-01-17T14:43:14.561Z,5.88
2023-01-17T14:45:41.452Z,5.90
2023-01-17T14:48:20.970Z,5.92
2023-01-17T14:50:48.837Z,5.93
2023-01-17T14:53:28.814Z,5.94
2023-01-17T14:55:56.881Z,5.96
2023-01-17T14:58:27.641Z,6.00
2023-01-17T15:01:02.432Z,6.02
2023-01-17T15:03:30.352Z,6.05
2023-01-17T15:05:57.790Z,6.06
2023-01-17T15:08:27.815Z,6.07
2023-01-17T15:11:03.048Z,6.08
2023-01-17T15:13:44.393Z,6.10
2023-01-17T15:16:20.447Z,6.10
2023-01-17T15:18:47.651Z,6.13
2023-01-17T15:21:19.703Z,6.14
2023-01-17T15:23:51.791Z,6.15
2023-01-17T15:26:20.268Z,6.18
2023-01-17T15:28:47.125Z,6.20
2023-01-17T15:31:19.955Z,6.22
2023-01-17T15:33:47.748Z,6.23
2023-01-17T15:36:20.918Z,6.24
2023-01-17T15:39:01.634Z,6.27
2023-01-17T15:41:31.725Z,6.29
2023-01-17T15:43:58.871Z,6.30
2023-01-17T15:46:30.010Z,6.31
2023-01-17T15:49:26.826Z,6.32
2023-01-17T15:52:08.886Z,6.34
2023-01-17T15:54:44.926Z,6.35
2023-01-17T15:57:19.267Z,6.36
2023-01-17T16:11:44.084Z,6.67
2023-01-17T16:14:10.738Z,6.80
2023-01-17T16:16:37.511Z,6.82
2023-01-17T16:19:04.295Z,6.82
2023-01-17T16:21:31.430Z,6.81
2023-01-17T16:23:59.227Z,6.81
2023-01-17T16:26:26.132Z,6.81
2023-01-17T16:28:52.949Z,6.79
2023-01-17T16:31:19.731Z,6.77
2023-01-17T16:33:48.968Z,6.73
2023-01-17T16:36:16.649Z,6.71
2023-01-17T16:38:44.320Z,6.66
2023-01-17T16:41:11.115Z,6.65
2023-01-17T16:43:37.798Z,6.65
2023-01-17T16:46:04.570Z,6.62
2023-01-17T16:48:31.338Z,6.64
2023-01-17T16:50:58.113Z,6.65
2023-01-17T16:53:26.355Z,6.65
2023-01-17T16:55:56.352Z,6.63
2023-01-17T16:58:23.067Z,6.62
2023-01-17T17:00:49.848Z,6.61
2023-01-17T17:03:17.483Z,6.59
2023-01-17T17:05:47.176Z,6.58
2023-01-17T17:08:15.324Z,6.58
2023-01-17T17:10:42.074Z,6.57
2023-01-17T17:13:08.818Z,6.57
2023-01-17T17:15:35.477Z,6.55
2023-01-17T17:18:02.580Z,6.55
2023-01-17T17:20:29.262Z,6.55
2023-01-17T17:22:56.000Z,6.56
2023-01-17T17:25:22.714Z,6.56
2023-01-17T17:27:49.418Z,6.57
2023-01-17T17:30:16.637Z,6.57
2023-01-17T17:32:45.776Z,6.57
2023-01-17T17:35:12.461Z,6.57
2023-01-17T17:37:39.242Z,6.57
2023-01-17T17:40:06.915Z,6.57
2023-01-17T17:42:33.732Z,6.57
2023-01-17T17:45:03.828Z,6.56
2023-01-17T17:47:32.081Z,6.56
2023-01-17T17:49:58.774Z,6.56
2023-01-17T17:52:25.690Z,6.57
2023-01-17T17:54:52.692Z,6.57
2023-01-17T17:57:19.400Z,6.56
2023-01-17T17:59:46.418Z,6.56
2023-01-17T18:02:17.548Z,6.57
2023-01-17T18:04:46.170Z,6.58
2023-01-17T18:07:13.123Z,6.60
2023-01-17T18:09:39.844Z,6.61
2023-01-17T18:12:07.022Z,6.62
2023-01-17T18:14:34.041Z,6.63
2023-01-17T18:17:00.749Z,6.63
2023-01-17T18:19:27.599Z,6.64
2023-01-17T18:21:54.324Z,6.65
2023-01-17T18:24:22.465Z,6.67
2023-01-17T18:26:53.510Z,6.68
2023-01-17T18:29:21.166Z,6.70
2023-01-17T18:31:50.115Z,6.71
2023-01-17T18:34:19.382Z,6.71
2023-01-17T18:36:46.011Z,6.71
2023-01-17T18:39:20.645Z,6.71
2023-01-17T18:41:47.504Z,6.70
2023-01-17T18:44:14.131Z,6.70
2023-01-17T18:46:42.201Z,6.72
2023-01-17T18:49:12.512Z,6.74
2023-01-17T18:51:39.235Z,6.75
2023-01-17T18:54:07.331Z,6.77
2023-01-17T18:56:34.672Z,6.79
2023-01-17T18:59:02.280Z,6.81
2023-01-17T19:01:30.539Z,6.81
2023-01-17T19:03:58.484Z,6.82
2023-01-17T19:06:46.501Z,6.84
2023-01-17T19:09:13.783Z,6.85
2023-01-17T19:11:40.595Z,6.86
2023-01-17T19:14:07.323Z,6.86
2023-01-17T19:16:36.224Z,6.88
2023-01-17T19:19:05.520Z,6.88
2023-01-17T19:21:32.183Z,6.88
2023-01-17T19:23:58.934Z,6.88
2023-01-17T19:26:27.398Z,6.88
2023-01-17T19:28:56.165Z,6.90
2023-01-17T19:31:27.256Z,6.92
2023-01-17T19:33:56.927Z,6.92
2023-01-17T19:36:28.723Z,6.92
2023-01-17T19:39:04.344Z,6.90
2023-01-17T19:41:32.540Z,6.88
2023-01-17T19:44:04.342Z,6.88
2023-01-17T19:46:31.163Z,6.87
2023-01-17T19:48:58.004Z,6.87
2023-01-17T19:51:25.035Z,6.87
2023-01-17T19:53:53.533Z,6.87
2023-01-17T19:56:24.667Z,6.88
2023-01-17T19:58:52.174Z,6.88
2023-01-17T20:01:24.755Z,6.87
2023-01-17T20:03:51.775Z,6.87
2023-01-17T20:06:20.312Z,6.85
2023-01-17T20:08:46.982Z,6.84
2023-01-17T20:11:19.267Z,6.82
2023-01-17T20:13:46.763Z,6.79
2023-01-17T20:16:14.538Z,6.77
2023-01-17T20:18:41.556Z,6.74
2023-01-17T20:21:10.457Z,6.72
2023-01-17T20:23:42.977Z,6.68
2023-01-17T20:26:21.489Z,6.66
2023-01-17T20:28:49.237Z,6.62
2023-01-17T20:31:18.841Z,6.58
2023-01-17T20:33:46.964Z,6.55
2023-01-17T20:36:15.018Z,6.51
2023-01-17T20:38:44.902Z,6.47
2023-01-17T20:41:11.583Z,6.43
2023-01-17T20:43:38.253Z,6.40
2023-01-17T20:46:05.537Z,6.37
2023-01-17T20:48:32.559Z,6.34
2023-01-17T20:51:06.874Z,6.30
2023-01-17T20:53:34.603Z,6.28
2023-01-17T20:56:01.344Z,6.24
2023-01-17T20:58:28.105Z,6.20
2023-01-17T21:00:55.636Z,6.17
2023-01-17T21:03:23.909Z,6.14
2023-01-17T21:05:51.274Z,6.11
2023-01-17T21:09:29.988Z,6.06
2023-01-17T21:12:01.093Z,6.02
2023-01-17T21:14:28.998Z,5.98
2023-01-17T21:16:55.670Z,5.94
2023-01-17T21:19:22.958Z,5.90
2023-01-17T21:21:51.288Z,5.87
2023-01-17T21:24:19.586Z,5.84
2023-01-17T21:26:46.557Z,5.82
2023-01-17T21:29:16.145Z,5.80
2023-01-17T21:31:43.282Z,5.77
2023-01-17T21:34:11.084Z,5.74
2023-01-17T21:36:39.260Z,5.71
2023-01-17T21:39:07.738Z,5.68
2023-01-17T21:41:39.645Z,5.67
2023-01-17T21:44:08.721Z,5.65
2023-01-17T21:46:39.443Z,5.65
2023-01-17T21:49:07.086Z,5.63
2023-01-17T21:51:52.706Z,5.62
2023-01-17T21:54:42.637Z,5.61
2023-01-17T21:57:28.208Z,5.59
2023-01-17T21:59:54.881Z,5.56
2023-01-17T22:02:21.563Z,5.53
2023-01-17T22:04:48.343Z,5.50
2023-01-17T22:07:14.986Z,5.48
2023-01-17T22:09:41.652Z,5.46
2023-01-17T22:12:08.377Z,5.47
2023-01-17T22:14:35.036Z,5.47
2023-01-17T22:17:01.665Z,5.47
2023-01-17T22:19:28.302Z,5.46
2023-01-17T22:21:54.951Z,5.45
2023-01-17T22:24:21.650Z,5.43
2023-01-17T22:26:48.299Z,5.42
2023-01-17T22:29:18.778Z,5.41
2023-01-17T22:31:45.722Z,5.41
2023-01-17T22:34:14.033Z,5.39
2023-01-17T22:36:41.158Z,5.36
2023-01-17T22:39:09.238Z,5.34
2023-01-17T22:41:37.368Z,5.32
2023-01-17T22:44:05.523Z,5.32
2023-01-17T22:46:33.002Z,5.30
2023-01-17T22:48:59.716Z,5.29
2023-01-17T22:51:27.698Z,5.28
2023-01-17T22:53:56.445Z,5.24
2023-01-17T22:56:27.971Z,5.22
2023-01-17T22:58:54.642Z,5.17
2023-01-17T23:01:26.054Z,5.15
2023-01-17T23:03:57.202Z,5.15
2023-01-17T23:06:25.830Z,5.15
2023-01-17T23:08:54.400Z,5.15
2023-01-17T23:11:40.704Z,5.15
2023-01-17T23:14:26.572Z,5.17
2023-01-17T23:17:12.665Z,5.19
2023-01-17T23:19:40.875Z,5.20
2023-01-17T23:22:15.747Z,5.22
2023-01-17T23:24:55.058Z,5.25
2023-01-17T23:27:45.033Z,5.28
2023-01-17T23:30:18.745Z,5.30
2023-01-17T23:32:47.666Z,5.33
2023-01-17T23:35:15.189Z,5.35
2023-01-17T23:38:00.690Z,5.37
2023-01-17T23:40:27.544Z,5.42
2023-01-17T23:43:13.013Z,5.46
2023-01-17T23:45:39.746Z,5.49
2023-01-17T23:48:09.558Z,5.50
2023-01-17T23:50:40.042Z,5.52
2023-01-17T23:53:07.255Z,5.53
2023-01-17T23:55:38.589Z,5.54
2023-01-17T23:58:12.483Z,5.55
